createdAt,value
2022-11-17T00:00:42.725Z,98139.75
2022-11-17T00:03:15.699Z,98134.06
2022-11-17T00:05:44.117Z,98141.72
2022-11-17T00:08:11.100Z,98146.72
2022-11-17T00:10:38.023Z,98127.00
2022-11-17T00:13:23.544Z,98141.63
2022-11-17T00:15:50.936Z,98120.72
2022-11-17T00:18:38.286Z,98133.56
2022-11-17T00:21:21.421Z,98113.19
2022-11-17T00:23:50.677Z,98116.28
2022-11-17T00:26:26.787Z,98113.44
2022-11-17T00:29:05.834Z,98119.13
2022-11-17T00:31:53.251Z,98114.47
2022-11-17T00:34:23.069Z,98115.53
2022-11-17T00:36:53.160Z,98111.25
2022-11-17T00:39:22.744Z,98118.72
2022-11-17T00:41:50.220Z,98115.88
2022-11-17T00:44:17.396Z,98105.63
2022-11-17T00:46:44.438Z,98106.47
2022-11-17T00:49:12.330Z,98096.66
2022-11-17T00:51:39.555Z,98094.25
2022-11-17T00:54:11.256Z,98099.78
2022-11-17T00:56:38.280Z,98083.91
2022-11-17T00:59:05.171Z,98071.63
2022-11-17T01:01:32.271Z,98066.03
2022-11-17T01:04:03.779Z,98079.22
2022-11-17T01:06:44.149Z,98060.84
2022-11-17T01:09:15.943Z,98062.59
2022-11-17T01:11:43.753Z,98051.34
2022-11-17T01:14:23.672Z,98043.75
2022-11-17T01:16:51.141Z,98039.69
2022-11-17T01:19:19.272Z,98045.53
2022-11-17T01:21:47.116Z,98045.78
2022-11-17T01:24:16.504Z,98028.06
2022-11-17T01:26:45.058Z,98040.50
2022-11-17T01:29:15.040Z,98029.63
2022-11-17T01:31:46.033Z,98022.25
2022-11-17T01:34:13.057Z,98019.84
2022-11-17T01:37:01.658Z,98012.69
2022-11-17T01:39:31.117Z,98010.84
2022-11-17T01:41:58.736Z,98011.91
2022-11-17T01:44:50.369Z,98006.78
2022-11-17T01:47:22.486Z,97989.66
2022-11-17T01:49:52.486Z,97988.59
2022-11-17T01:52:19.403Z,97985.34
2022-11-17T01:54:48.648Z,97990.19
2022-11-17T01:57:33.325Z,97966.88
2022-11-17T02:00:06.568Z,97970.06
2022-11-17T02:02:34.868Z,97965.47
2022-11-17T02:05:18.133Z,97962.91
2022-11-17T02:07:46.558Z,97960.69
2022-11-17T02:10:13.623Z,97963.13
2022-11-17T02:12:41.710Z,97959.50
2022-11-17T02:15:09.185Z,97951.25
2022-11-17T02:17:43.652Z,97948.03
2022-11-17T02:20:51.434Z,97951.13
2022-11-17T02:24:12.085Z,97948.25
2022-11-17T02:27:18.911Z,97948.44
2022-11-17T02:29:54.604Z,97935.59
2022-11-17T02:33:02.508Z,97938.78
2022-11-17T02:35:40.112Z,97937.19
2022-11-17T02:38:31.320Z,97935.31
2022-11-17T02:41:26.933Z,97942.53
2022-11-17T02:44:23.485Z,97949.25
2022-11-17T02:47:18.807Z,97938.97
2022-11-17T02:49:54.043Z,97947.47
2022-11-17T02:52:22.055Z,97928.38
2022-11-17T02:54:48.962Z,97923.28
2022-11-17T02:57:34.003Z,97922.00
2022-11-17T03:00:23.157Z,97934.69
2022-11-17T03:03:07.261Z,97933.03
2022-11-17T03:06:00.559Z,97931.00
2022-11-17T03:08:57.741Z,97937.75
2022-11-17T03:11:40.017Z,97939.44
2022-11-17T03:14:38.957Z,97938.22
2022-11-17T03:17:26.815Z,97938.97
2022-11-17T03:20:07.022Z,97944.44
2022-11-17T03:22:49.343Z,97945.59
2022-11-17T03:25:21.374Z,97952.31
2022-11-17T03:27:52.939Z,97954.44
2022-11-17T03:30:23.016Z,97946.38
2022-11-17T03:33:02.239Z,97956.97
2022-11-17T03:35:31.972Z,97960.50
2022-11-17T03:38:10.835Z,97936.22
2022-11-17T03:40:41.593Z,97951.59
2022-11-17T03:43:09.865Z,97951.03
2022-11-17T03:45:43.452Z,97959.50
2022-11-17T03:48:20.343Z,97963.81
2022-11-17T03:51:16.302Z,97969.38
2022-11-17T03:53:44.168Z,97976.59
2022-11-17T03:56:48.029Z,97957.38
2022-11-17T03:59:32.001Z,97960.09
2022-11-17T04:01:59.450Z,97972.66
2022-11-17T04:04:48.352Z,97964.19
2022-11-17T04:07:15.365Z,97968.25
2022-11-17T04:09:42.282Z,97976.84
2022-11-17T04:12:27.854Z,97979.00
2022-11-17T04:15:13.416Z,97970.69
2022-11-17T04:17:40.493Z,97961.53
2022-11-17T04:20:08.593Z,97971.31
2022-11-17T04:22:35.488Z,97975.69
2022-11-17T04:25:02.401Z,97971.78
2022-11-17T04:27:47.809Z,97964.75
2022-11-17T04:30:14.997Z,97950.03
2022-11-17T04:32:41.897Z,97952.69
2022-11-17T04:35:08.970Z,97954.53
2022-11-17T04:37:35.857Z,97959.81
2022-11-17T04:40:02.874Z,97958.41
2022-11-17T04:42:29.784Z,97953.69
2022-11-17T04:44:56.709Z,97962.44
2022-11-17T04:47:23.661Z,97955.53
2022-11-17T04:49:50.559Z,97967.84
2022-11-17T04:52:17.467Z,97972.88
2022-11-17T04:54:44.473Z,97971.38
2022-11-17T04:57:11.347Z,97970.91
2022-11-17T04:59:38.248Z,97975.56
2022-11-17T05:02:06.298Z,97977.50
2022-11-17T05:04:51.691Z,97979.81
2022-11-17T05:07:18.721Z,97992.38
2022-11-17T05:09:45.650Z,98001.16
2022-11-17T05:12:30.920Z,98001.72
2022-11-17T05:14:57.821Z,97994.84
2022-11-17T05:17:24.723Z,98001.63
2022-11-17T05:19:51.699Z,98006.22
2022-11-17T05:22:41.064Z,98004.41
2022-11-17T05:25:09.271Z,97990.34
2022-11-17T05:27:36.493Z,98012.72
2022-11-17T05:30:07.104Z,98011.66
2022-11-17T05:32:34.215Z,98019.75
2022-11-17T05:35:01.224Z,98032.50
2022-11-17T05:37:28.163Z,98026.03
2022-11-17T05:39:55.066Z,98024.50
2022-11-17T05:42:22.064Z,98027.38
2022-11-17T05:44:49.040Z,98032.63
2022-11-17T05:47:16.143Z,98035.25
2022-11-17T05:49:43.168Z,98045.25
2022-11-17T05:52:10.276Z,98045.88
2022-11-17T05:54:37.199Z,98046.84
2022-11-17T05:57:12.994Z,98051.03
2022-11-17T06:00:00.796Z,98060.38
2022-11-17T06:02:42.070Z,98053.31
2022-11-17T06:05:10.968Z,98067.06
2022-11-17T06:07:40.222Z,98070.00
2022-11-17T06:10:07.962Z,98065.63
2022-11-17T06:12:34.955Z,98075.63
2022-11-17T06:15:01.845Z,98076.28
2022-11-17T06:17:40.081Z,98067.25
2022-11-17T06:20:18.676Z,98080.59
2022-11-17T06:22:48.462Z,98090.13
2022-11-17T06:25:17.365Z,98082.50
2022-11-17T06:27:45.580Z,98095.22
2022-11-17T06:30:12.863Z,98105.38
2022-11-17T06:32:43.624Z,98095.06
2022-11-17T06:35:14.346Z,98096.06
2022-11-17T06:37:41.288Z,98109.56
2022-11-17T06:40:10.077Z,98120.28
2022-11-17T06:43:03.639Z,98119.09
2022-11-17T06:45:36.086Z,98112.75
2022-11-17T06:48:03.292Z,98122.97
2022-11-17T06:50:30.200Z,98121.84
2022-11-17T06:53:02.731Z,98118.56
2022-11-17T06:55:30.188Z,98117.41
2022-11-17T06:58:11.662Z,98127.44
2022-11-17T07:00:38.762Z,98147.06
2022-11-17T07:03:09.334Z,98125.59
2022-11-17T07:05:40.114Z,98138.84
2022-11-17T07:08:08.525Z,98130.28
2022-11-17T07:10:36.039Z,98137.44
2022-11-17T07:13:03.452Z,98147.97
2022-11-17T07:15:30.753Z,98153.31
2022-11-17T07:17:58.662Z,98168.06
2022-11-17T07:20:25.659Z,98164.81
2022-11-17T07:22:58.323Z,98170.38
2022-11-17T07:25:25.222Z,98188.47
2022-11-17T07:27:59.722Z,98194.69
2022-11-17T07:30:26.917Z,98187.47
2022-11-17T07:32:54.966Z,98209.66
2022-11-17T07:35:22.062Z,98202.53
2022-11-17T07:37:49.027Z,98195.00
2022-11-17T07:40:16.155Z,98218.88
2022-11-17T07:42:48.879Z,98221.28
2022-11-17T07:45:16.123Z,98226.72
2022-11-17T07:47:43.060Z,98227.28
2022-11-17T07:50:10.252Z,98229.03
2022-11-17T07:52:41.249Z,98245.28
2022-11-17T07:55:08.814Z,98226.81
2022-11-17T07:57:36.268Z,98222.00
2022-11-17T08:00:04.049Z,98229.00
2022-11-17T08:02:31.018Z,98240.59
2022-11-17T08:04:58.005Z,98233.94
2022-11-17T08:07:24.946Z,98234.69
2022-11-17T08:09:51.984Z,98236.97
2022-11-17T08:12:18.909Z,98244.16
2022-11-17T08:14:45.904Z,98247.28
2022-11-17T08:17:12.856Z,98256.09
2022-11-17T08:19:39.781Z,98262.78
2022-11-17T08:22:06.727Z,98253.78
2022-11-17T08:24:33.916Z,98267.28
2022-11-17T08:27:00.940Z,98275.16
2022-11-17T08:29:27.860Z,98271.09
2022-11-17T08:31:54.988Z,98285.03
2022-11-17T08:34:21.892Z,98296.16
2022-11-17T08:36:48.805Z,98297.97
2022-11-17T08:39:15.739Z,98298.28
2022-11-17T08:41:42.652Z,98307.34
2022-11-17T08:44:09.597Z,98314.31
2022-11-17T08:46:36.569Z,98323.69
2022-11-17T08:49:04.105Z,98312.19
2022-11-17T08:51:31.245Z,98343.13
2022-11-17T08:53:59.339Z,98350.44
2022-11-17T08:56:26.368Z,98362.41
2022-11-17T08:58:53.425Z,98361.06
2022-11-17T09:01:20.396Z,98367.56
2022-11-17T09:03:48.301Z,98372.56
2022-11-17T09:06:17.743Z,98359.94
2022-11-17T09:08:46.672Z,98363.38
2022-11-17T09:11:16.500Z,98364.28
2022-11-17T09:13:45.639Z,98365.09
2022-11-17T09:16:13.224Z,98366.25
2022-11-17T09:18:41.454Z,98372.00
2022-11-17T09:21:15.523Z,98367.09
2022-11-17T09:23:43.129Z,98370.00
2022-11-17T09:26:13.316Z,98384.75
2022-11-17T09:28:40.833Z,98388.38
2022-11-17T09:31:14.163Z,98385.56
2022-11-17T09:33:42.010Z,98390.47
2022-11-17T09:36:10.888Z,98398.66
2022-11-17T09:38:39.323Z,98402.69
2022-11-17T09:41:20.820Z,98405.94
2022-11-17T09:44:42.567Z,98403.97
2022-11-17T09:47:42.918Z,98410.72
2022-11-17T09:50:37.763Z,98420.13
2022-11-17T09:53:26.691Z,98418.31
2022-11-17T09:56:01.022Z,98438.94
2022-11-17T09:58:53.842Z,98424.06
2022-11-17T10:01:22.783Z,98433.78
2022-11-17T10:03:53.594Z,98436.44
2022-11-17T10:06:23.076Z,98443.00
2022-11-17T10:09:03.158Z,98443.56
2022-11-17T10:11:37.639Z,98440.94
2022-11-17T10:14:15.847Z,98443.88
2022-11-17T10:16:53.937Z,98449.25
2022-11-17T10:19:22.712Z,98472.06
2022-11-17T10:22:13.730Z,98462.72
2022-11-17T10:24:51.136Z,98457.41
2022-11-17T10:27:17.948Z,98470.63
2022-11-17T10:29:57.411Z,98475.59
2022-11-17T10:32:25.478Z,98465.06
2022-11-17T10:34:52.470Z,98465.13
2022-11-17T10:37:19.287Z,98467.66
2022-11-17T10:39:46.570Z,98469.16
2022-11-17T10:42:31.912Z,98484.06
2022-11-17T10:45:01.478Z,98474.25
2022-11-17T10:47:37.327Z,98475.28
2022-11-17T10:50:23.709Z,98491.81
2022-11-17T10:52:56.789Z,98492.09
2022-11-17T10:55:31.666Z,98497.38
2022-11-17T10:58:22.127Z,98498.91
2022-11-17T11:01:01.763Z,98494.84
2022-11-17T11:03:34.932Z,98505.94
2022-11-17T11:06:23.599Z,98497.94
2022-11-17T11:09:12.157Z,98497.75
2022-11-17T11:12:05.398Z,98500.00
2022-11-17T11:14:44.744Z,98502.34
2022-11-17T11:17:14.475Z,98502.59
2022-11-17T11:19:47.837Z,98517.13
2022-11-17T11:22:43.927Z,98520.28
2022-11-17T11:25:41.318Z,98514.28
2022-11-17T11:28:39.011Z,98514.66
2022-11-17T11:32:14.468Z,98518.09
2022-11-17T11:35:17.027Z,98523.56
2022-11-17T11:38:09.616Z,98520.78
2022-11-17T11:40:44.588Z,98524.59
2022-11-17T11:43:43.248Z,98535.88
2022-11-17T11:46:42.595Z,98538.75
2022-11-17T11:49:26.475Z,98536.25
2022-11-17T11:51:54.223Z,98536.31
2022-11-17T11:54:38.225Z,98530.44
2022-11-17T11:57:12.750Z,98538.66
2022-11-17T12:00:16.303Z,98536.34
2022-11-17T12:02:54.178Z,98539.91
2022-11-17T12:06:26.066Z,98529.22
2022-11-17T12:09:30.172Z,98543.38
2022-11-17T12:12:01.441Z,98535.72
2022-11-17T12:14:35.376Z,98547.72
2022-11-17T12:17:26.384Z,98535.75
2022-11-17T12:20:07.519Z,98536.03
2022-11-17T12:22:37.493Z,98546.81
2022-11-17T12:25:22.500Z,98548.03
2022-11-17T12:27:53.458Z,98556.56
2022-11-17T12:30:37.602Z,98546.88
2022-11-17T12:33:08.487Z,98550.56
2022-11-17T12:35:38.124Z,98563.69
2022-11-17T12:38:17.100Z,98566.53
2022-11-17T12:40:51.485Z,98570.81
2022-11-17T12:43:29.533Z,98565.75
2022-11-17T12:45:59.357Z,98564.53
2022-11-17T12:48:34.961Z,98572.78
2022-11-17T12:51:14.439Z,98575.16
2022-11-17T12:54:27.537Z,98576.31
2022-11-17T12:57:17.532Z,98571.63
2022-11-17T13:00:11.836Z,98586.53
2022-11-17T13:02:53.703Z,98572.75
2022-11-17T13:05:24.080Z,98578.25
2022-11-17T13:08:27.794Z,98591.50
2022-11-17T13:11:12.096Z,98582.66
2022-11-17T13:13:43.928Z,98576.19
2022-11-17T13:16:22.089Z,98584.41
2022-11-17T13:18:50.133Z,98589.19
2022-11-17T13:21:30.734Z,98586.50
2022-11-17T13:24:00.304Z,98593.44
2022-11-17T13:26:39.898Z,98594.75
2022-11-17T13:29:13.247Z,98616.63
2022-11-17T13:31:40.763Z,98616.56
2022-11-17T13:34:10.754Z,98612.56
2022-11-17T13:36:56.999Z,98614.47
2022-11-17T13:39:27.560Z,98616.81
2022-11-17T13:41:56.218Z,98616.28
2022-11-17T13:44:25.961Z,98615.81
2022-11-17T13:46:53.019Z,98626.25
2022-11-17T13:49:36.224Z,98624.31
2022-11-17T13:52:05.324Z,98615.72
2022-11-17T13:54:33.282Z,98623.84
2022-11-17T13:57:08.036Z,98620.19
2022-11-17T13:59:38.653Z,98616.88
2022-11-17T14:02:31.948Z,98623.28
2022-11-17T14:05:18.716Z,98614.78
2022-11-17T14:07:47.008Z,98620.13
2022-11-17T14:10:20.090Z,98626.94
2022-11-17T14:13:18.982Z,98623.56
2022-11-17T14:15:56.695Z,98625.31
2022-11-17T14:18:33.018Z,98637.47
2022-11-17T14:21:17.356Z,98632.53
2022-11-17T14:23:45.389Z,98644.84
2022-11-17T14:26:22.018Z,98645.56
2022-11-17T14:28:50.939Z,98655.25
2022-11-17T14:31:18.703Z,98656.53
2022-11-17T14:33:46.388Z,98656.03
2022-11-17T14:36:16.341Z,98654.69
2022-11-17T14:38:47.051Z,98661.41
2022-11-17T14:41:19.843Z,98661.19
2022-11-17T14:43:47.417Z,98660.06
2022-11-17T14:46:27.235Z,98660.00
2022-11-17T14:48:55.511Z,98667.19
2022-11-17T14:51:22.945Z,98665.66
2022-11-17T14:53:49.997Z,98663.66
2022-11-17T14:56:21.100Z,98673.28
2022-11-17T14:58:54.010Z,98678.00
2022-11-17T15:01:31.032Z,98675.47
2022-11-17T15:04:15.452Z,98691.16
2022-11-17T15:06:49.051Z,98683.78
2022-11-17T15:09:16.521Z,98683.97
2022-11-17T15:11:43.488Z,98685.69
2022-11-17T15:14:11.233Z,98692.03
2022-11-17T15:16:38.268Z,98695.44
2022-11-17T15:19:05.505Z,98695.88
2022-11-17T15:21:32.446Z,98699.66
2022-11-17T15:24:01.878Z,98704.53
2022-11-17T15:26:28.829Z,98716.78
2022-11-17T15:28:59.610Z,98713.19
2022-11-17T15:31:27.605Z,98714.78
2022-11-17T15:33:54.497Z,98708.47
2022-11-17T15:36:25.620Z,98725.53
2022-11-17T15:38:53.463Z,98720.56
2022-11-17T15:41:21.288Z,98720.22
2022-11-17T15:43:48.296Z,98719.53
2022-11-17T15:46:18.502Z,98731.44
2022-11-17T15:48:49.202Z,98727.50
2022-11-17T15:51:24.182Z,98731.69
2022-11-17T15:53:53.486Z,98736.53
2022-11-17T15:56:27.929Z,98739.22
2022-11-17T15:59:05.061Z,98744.91
2022-11-17T16:01:37.867Z,98752.13
2022-11-17T16:04:15.554Z,98751.00
2022-11-17T16:06:44.519Z,98767.44
2022-11-17T16:09:13.085Z,98768.19
2022-11-17T16:11:40.773Z,98764.31
2022-11-17T16:14:07.912Z,98765.22
2022-11-17T16:16:38.323Z,98782.97
2022-11-17T16:19:06.284Z,98778.81
2022-11-17T16:21:33.910Z,98787.25
2022-11-17T16:24:02.084Z,98788.91
2022-11-17T16:26:30.434Z,98798.72
2022-11-17T16:29:02.360Z,98787.97
2022-11-17T16:31:32.426Z,98795.59
2022-11-17T16:34:05.698Z,98789.69
2022-11-17T16:36:36.921Z,98791.34
2022-11-17T16:39:07.145Z,98799.53
2022-11-17T16:41:37.817Z,98792.69
2022-11-17T16:44:14.367Z,98786.50
2022-11-17T16:46:47.481Z,98789.84
2022-11-17T16:49:16.848Z,98791.78
2022-11-17T16:51:49.564Z,98799.72
2022-11-17T16:54:16.968Z,98800.06
2022-11-17T16:56:44.158Z,98797.50
2022-11-17T16:59:12.142Z,98806.69
2022-11-17T17:01:39.304Z,98804.66
2022-11-17T17:04:10.216Z,98800.47
2022-11-17T17:06:41.213Z,98805.91
2022-11-17T17:09:09.954Z,98799.94
2022-11-17T17:11:37.457Z,98800.44
2022-11-17T17:14:08.341Z,98807.53
2022-11-17T17:16:37.439Z,98807.50
2022-11-17T17:19:08.532Z,98801.34
2022-11-17T17:21:37.234Z,98804.50
2022-11-17T17:24:04.868Z,98811.22
2022-11-17T17:26:33.937Z,98813.91
2022-11-17T17:29:02.836Z,98813.66
2022-11-17T17:31:34.119Z,98821.38
2022-11-17T17:34:01.654Z,98817.25
2022-11-17T17:36:29.186Z,98824.53
2022-11-17T17:38:58.992Z,98830.16
2022-11-17T17:41:29.368Z,98828.09
2022-11-17T17:44:08.033Z,98839.16
2022-11-17T17:46:39.259Z,98843.47
2022-11-17T17:49:06.731Z,98851.25
2022-11-17T17:51:38.263Z,98846.00
2022-11-17T17:54:05.434Z,98854.78
2022-11-17T17:56:34.678Z,98859.00
2022-11-17T17:59:01.854Z,98860.75
2022-11-17T18:01:35.483Z,98874.72
2022-11-17T18:04:05.401Z,98867.41
2022-11-17T18:06:41.521Z,98872.41
2022-11-17T18:09:10.806Z,98882.41
2022-11-17T18:11:45.600Z,98881.63
2022-11-17T18:14:13.328Z,98877.81
2022-11-17T18:16:40.768Z,98878.63
2022-11-17T18:19:09.366Z,98882.53
2022-11-17T18:21:36.767Z,98890.84
2022-11-17T18:24:04.553Z,98898.81
2022-11-17T18:26:34.121Z,98894.31
2022-11-17T18:29:21.377Z,98894.91
2022-11-17T18:31:49.463Z,98908.13
2022-11-17T18:34:23.097Z,98906.41
2022-11-17T18:36:53.126Z,98908.56
2022-11-17T18:39:21.336Z,98911.97
2022-11-17T18:41:48.579Z,98919.66
2022-11-17T18:44:19.366Z,98914.38
2022-11-17T18:46:47.248Z,98925.59
2022-11-17T18:49:14.549Z,98925.44
2022-11-17T18:51:41.906Z,98924.06
2022-11-17T18:54:12.337Z,98915.13
2022-11-17T18:56:39.994Z,98918.66
2022-11-17T18:59:11.725Z,98922.66
2022-11-17T19:01:41.139Z,98930.25
2022-11-17T19:04:08.734Z,98930.31
2022-11-17T19:06:35.734Z,98928.97
2022-11-17T19:09:02.722Z,98926.28
2022-11-17T19:11:31.538Z,98929.91
2022-11-17T19:14:04.162Z,98935.06
2022-11-17T19:16:32.521Z,98937.25
2022-11-17T19:18:59.750Z,98933.84
2022-11-17T19:21:33.630Z,98939.00
2022-11-17T19:24:03.514Z,98937.03
2022-11-17T19:26:36.117Z,98937.84
2022-11-17T19:29:15.557Z,98948.72
2022-11-17T19:31:43.756Z,98934.50
2022-11-17T19:34:10.848Z,98943.09
2022-11-17T19:36:38.068Z,98945.53
2022-11-17T19:39:05.804Z,98944.75
2022-11-17T19:41:36.345Z,98945.88
2022-11-17T19:44:11.479Z,98945.19
2022-11-17T19:46:39.095Z,98949.66
2022-11-17T19:49:07.728Z,98955.53
2022-11-17T19:51:46.070Z,98957.66
2022-11-17T19:54:14.224Z,98957.25
2022-11-17T19:56:43.452Z,98958.22
2022-11-17T19:59:15.652Z,98967.22
2022-11-17T20:01:44.194Z,98968.91
2022-11-17T20:04:11.354Z,98962.31
2022-11-17T20:06:39.887Z,98964.34
2022-11-17T20:09:13.192Z,98966.09
2022-11-17T20:11:40.984Z,98970.00
2022-11-17T20:14:08.115Z,98975.31
2022-11-17T20:16:38.834Z,98980.84
2022-11-17T20:19:05.999Z,98977.81
2022-11-17T20:21:34.750Z,98984.91
2022-11-17T20:24:05.270Z,98988.22
2022-11-17T20:26:35.509Z,98992.59
2022-11-17T20:29:03.410Z,98991.94
2022-11-17T20:31:33.438Z,98986.34
2022-11-17T20:34:03.066Z,98988.53
2022-11-17T20:36:32.451Z,98987.19
2022-11-17T20:39:02.721Z,98991.69
2022-11-17T20:41:30.522Z,98993.88
2022-11-17T20:43:59.986Z,98986.53
2022-11-17T20:46:30.006Z,98999.81
2022-11-17T20:48:57.067Z,99000.63
2022-11-17T20:51:25.662Z,99004.06
2022-11-17T20:53:52.809Z,99005.69
2022-11-17T20:56:20.406Z,99009.31
2022-11-17T20:58:47.593Z,99014.88
2022-11-17T21:01:18.472Z,99019.94
2022-11-17T21:03:45.925Z,99016.53
2022-11-17T21:06:14.522Z,99008.72
2022-11-17T21:08:43.422Z,99014.69
2022-11-17T21:11:38.509Z,99007.44
2022-11-17T21:14:07.785Z,99008.81
2022-11-17T21:16:36.965Z,99013.84
2022-11-17T21:19:05.017Z,99025.72
2022-11-17T21:21:32.087Z,99029.00
2022-11-17T21:23:59.778Z,99031.78
2022-11-17T21:26:27.934Z,99033.50
2022-11-17T21:28:55.149Z,99044.06
2022-11-17T21:31:28.856Z,99040.75
2022-11-17T21:34:02.078Z,99046.03
2022-11-17T21:36:31.354Z,99060.28
2022-11-17T21:38:59.169Z,99057.31
2022-11-17T21:41:32.462Z,99055.72
2022-11-17T21:44:02.049Z,99058.50
2022-11-17T21:46:34.196Z,99050.16
2022-11-17T21:49:04.389Z,99056.41
2022-11-17T21:51:34.958Z,99057.75
2022-11-17T21:54:05.047Z,99060.94
2022-11-17T21:56:32.584Z,99064.22
2022-11-17T21:59:03.478Z,99061.53
2022-11-17T22:01:32.028Z,99062.25
2022-11-17T22:03:59.423Z,99073.97
2022-11-17T22:06:27.090Z,99064.16
2022-11-17T22:08:55.896Z,99075.31
2022-11-17T22:11:35.387Z,99070.50
2022-11-17T22:14:15.122Z,99082.84
2022-11-17T22:16:48.001Z,99077.53
2022-11-17T22:19:16.754Z,99067.47
2022-11-17T22:21:47.550Z,99074.56
2022-11-17T22:24:14.702Z,99079.91
2022-11-17T22:26:43.635Z,99086.72
2022-11-17T22:29:15.198Z,99079.63
2022-11-17T22:31:44.272Z,99091.88
2022-11-17T22:34:13.104Z,99101.06
2022-11-17T22:36:40.333Z,99089.69
2022-11-17T22:39:07.720Z,99108.78
2022-11-17T22:41:35.033Z,99120.00
2022-11-17T22:44:01.993Z,99124.66
2022-11-17T22:46:29.227Z,99117.25
2022-11-17T22:48:56.862Z,99129.09
2022-11-17T22:51:43.663Z,99136.63
2022-11-17T22:54:11.066Z,99137.25
2022-11-17T22:56:38.011Z,99137.38
2022-11-17T22:59:04.998Z,99153.16
2022-11-17T23:01:32.338Z,99147.09
2022-11-17T23:03:59.694Z,99149.59
2022-11-17T23:06:29.803Z,99142.59
2022-11-17T23:08:58.185Z,99138.97
2022-11-17T23:11:37.395Z,99149.84
2022-11-17T23:14:08.148Z,99146.66
2022-11-17T23:16:36.831Z,99148.91
2022-11-17T23:19:05.529Z,99158.63
2022-11-17T23:21:32.704Z,99159.84
2022-11-17T23:23:59.664Z,99160.63
2022-11-17T23:26:26.649Z,99163.03
2022-11-17T23:28:53.805Z,99170.13
2022-11-17T23:31:21.028Z,99173.44
2022-11-17T23:33:49.000Z,99170.66
2022-11-17T23:36:21.778Z,99180.97
2022-11-17T23:38:50.355Z,99185.16
2022-11-17T23:41:20.577Z,99182.75
2022-11-17T23:43:51.220Z,99188.59
2022-11-17T23:46:20.939Z,99193.56
2022-11-17T23:48:48.718Z,99193.59
2022-11-17T23:51:22.344Z,99189.94
2022-11-17T23:53:52.263Z,99195.53
2022-11-17T23:56:22.978Z,99212.47
2022-11-17T23:58:51.000Z,99208.53
